Time;durP1;ratioP1;P1;durP2;ratioP2;P2;SDS_P1;SDS_P2;PMS_P1;PMS_P2;Temp;Humidity;BMP_temperature;BMP_pressure;BME280_temperature;BME280_humidity;BME280_pressure;Samples;Min_cycle;Max_cycle;Signal;HPM_P1;HPM_P2
2022/06/29 04:00:56;;;;;;;6.73;6.13;;;16.00;96.30;;;;;;5780442;23;20484;-78
2022/06/29 04:03:21;;;;;;;7.33;6.63;;;16.00;96.30;;;;;;4987841;28;20869;-78
2022/06/29 04:05:47;;;;;;;8.67;7.10;;;16.10;96.30;;;;;;4973378;28;20184;-77
2022/06/29 04:08:12;;;;;;;8.07;7.37;;;16.20;96.30;;;;;;4974163;28;20174;-77
2022/06/29 04:10:38;;;;;;;7.67;7.07;;;16.20;96.30;;;;;;4956619;28;20240;-76
2022/06/29 04:13:03;;;;;;;8.33;7.53;;;16.20;96.30;;;;;;4974202;28;20705;-77
2022/06/29 04:15:29;;;;;;;9.40;8.27;;;16.20;96.30;;;;;;4957650;28;20174;-77
2022/06/29 04:17:54;;;;;;;8.10;7.40;;;16.20;96.30;;;;;;4956787;28;20183;-76
2022/06/29 04:23:04;;;;;;;8.50;7.40;;;16.30;96.30;;;;;;4973712;28;20200;-76
2022/06/29 04:25:29;;;;;;;8.93;7.40;;;16.20;96.30;;;;;;4978059;28;20814;-76
2022/06/29 04:27:55;;;;;;;7.73;6.83;;;16.20;96.30;;;;;;4991338;28;20590;-78
2022/06/29 04:39:53;;;;;;;7.27;6.57;;;16.30;96.30;;;;;;5032135;28;20399;-79
2022/06/29 04:52:40;;;;;;;8.10;7.30;;;16.70;96.30;;;;;;1476217;26;20484;-79
2022/06/29 04:55:08;;;;;;;7.90;6.97;;;16.70;96.30;;;;;;4979921;28;20407;-79
2022/06/29 04:57:33;;;;;;;10.83;7.13;;;16.70;96.30;;;;;;4995152;28;20173;-78
2022/06/29 04:59:59;;;;;;;8.47;7.63;;;16.60;96.30;;;;;;4991062;28;20785;-79
2022/06/29 05:02:24;;;;;;;8.50;7.77;;;16.70;96.30;;;;;;4995595;28;20248;-77
2022/06/29 05:04:51;;;;;;;10.00;7.33;;;16.80;96.30;;;;;;4995966;28;20169;-77
2022/06/29 05:07:16;;;;;;;15.20;7.73;;;16.80;96.30;;;;;;4992825;28;20621;-81
2022/06/29 05:09:44;;;;;;;8.03;7.17;;;16.70;96.30;;;;;;4993388;28;20460;-80
2022/06/29 05:12:10;;;;;;;9.27;7.80;;;16.70;96.30;;;;;;4995063;28;20623;-79
2022/06/29 05:14:35;;;;;;;8.27;7.60;;;16.80;96.30;;;;;;4995437;28;20947;-79
2022/06/29 05:17:01;;;;;;;9.27;8.37;;;16.80;96.30;;;;;;4996351;28;20193;-77
2022/06/29 05:19:26;;;;;;;9.73;8.23;;;16.80;96.30;;;;;;4996896;28;20184;-77
2022/06/29 05:21:52;;;;;;;7.70;7.03;;;16.80;96.30;;;;;;4999793;28;20214;-77
2022/06/29 05:24:17;;;;;;;11.20;7.87;;;16.90;96.30;;;;;;4999390;28;20335;-77
2022/06/29 05:26:42;;;;;;;8.70;7.90;;;16.90;96.30;;;;;;4998438;28;20232;-77
2022/06/29 05:29:08;;;;;;;8.07;7.37;;;17.00;96.30;;;;;;4998069;28;20724;-77
2022/06/29 05:31:33;;;;;;;8.97;7.80;;;17.10;96.30;;;;;;4998252;28;20247;-78
2022/06/29 05:33:59;;;;;;;8.23;7.47;;;17.00;96.30;;;;;;4980412;28;20204;-77
2022/06/29 05:36:24;;;;;;;7.83;7.13;;;16.90;96.30;;;;;;4997824;28;20170;-77
2022/06/29 05:38:50;;;;;;;8.30;7.47;;;17.00;96.30;;;;;;4997971;28;20262;-78
2022/06/29 05:41:15;;;;;;;10.00;7.87;;;17.10;96.30;;;;;;4980476;28;20212;-77
2022/06/29 05:43:41;;;;;;;8.33;7.53;;;17.20;96.30;;;;;;4997582;28;20185;-78
2022/06/29 05:46:06;;;;;;;7.93;7.13;;;17.20;96.30;;;;;;4980833;28;20177;-77
2022/06/29 05:48:32;;;;;;;8.07;7.27;;;17.20;96.30;;;;;;4996115;28;20696;-77
2022/06/29 05:50:58;;;;;;;7.90;7.20;;;17.30;96.30;;;;;;4980224;28;20277;-77
2022/06/29 05:53:23;;;;;;;8.00;7.40;;;17.30;96.30;;;;;;4998862;28;20252;-77
2022/06/29 05:55:49;;;;;;;7.40;6.70;;;17.40;96.30;;;;;;4977528;28;20253;-77
2022/06/29 05:58:18;;;;;;;7.40;6.80;;;17.40;96.30;;;;;;4983846;28;20245;-78
2022/06/29 06:00:43;;;;;;;7.30;6.70;;;17.50;96.30;;;;;;4979350;28;20198;-77
2022/06/29 06:03:09;;;;;;;8.00;6.83;;;17.60;96.30;;;;;;4979244;28;20938;-78
2022/06/29 06:05:34;;;;;;;8.57;7.47;;;17.70;96.30;;;;;;4978086;28;20264;-78
2022/06/29 06:08:00;;;;;;;8.73;7.53;;;17.60;96.30;;;;;;4994132;28;20217;-78
2022/06/29 06:10:25;;;;;;;6.70;6.20;;;17.80;96.30;;;;;;4978457;28;21034;-78
2022/06/29 06:12:52;;;;;;;9.57;6.50;;;17.80;96.30;;;;;;4944669;28;20984;-77
2022/06/29 06:15:17;;;;;;;7.10;6.50;;;18.00;96.30;;;;;;4987428;28;21150;-78
2022/06/29 06:17:43;;;;;;;7.53;6.40;;;18.10;96.30;;;;;;4983358;28;20421;-78
2022/06/29 06:20:09;;;;;;;8.00;7.30;;;18.20;96.30;;;;;;4983253;28;20272;-79
2022/06/29 06:22:34;;;;;;;8.10;7.00;;;18.20;96.30;;;;;;4989890;28;20261;-79
2022/06/29 06:25:00;;;;;;;7.30;6.57;;;18.20;96.30;;;;;;4979955;28;20420;-80
2022/06/29 06:27:25;;;;;;;7.57;6.97;;;18.20;96.30;;;;;;4989619;28;20185;-81
2022/06/29 06:29:51;;;;;;;7.20;6.30;;;18.20;96.30;;;;;;4990715;28;20650;-79
2022/06/29 06:32:16;;;;;;;9.37;7.30;;;18.10;96.30;;;;;;4989114;28;20205;-79
2022/06/29 06:34:42;;;;;;;7.50;6.80;;;18.20;96.30;;;;;;4990006;28;20608;-80
2022/06/29 06:37:07;;;;;;;8.13;6.80;;;18.20;96.30;;;;;;4990046;28;20193;-79
2022/06/29 06:39:33;;;;;;;7.37;6.60;;;18.10;96.30;;;;;;4989600;28;20305;-79
2022/06/29 06:41:58;;;;;;;7.70;7.00;;;18.20;96.30;;;;;;4971463;28;20585;-81
2022/06/29 06:44:24;;;;;;;7.73;7.07;;;18.50;96.30;;;;;;4973217;28;20186;-80
2022/06/29 06:46:49;;;;;;;11.40;7.77;;;18.50;96.30;;;;;;4989708;28;20665;-78
2022/06/29 06:49:16;;;;;;;9.17;8.40;;;18.60;96.30;;;;;;4991775;28;20562;-79
2022/06/29 06:51:42;;;;;;;9.40;8.50;;;18.50;96.30;;;;;;4990321;28;21039;-78
2022/06/29 06:54:07;;;;;;;7.93;7.23;;;18.50;96.30;;;;;;4992358;28;20500;-80
2022/06/29 06:56:33;;;;;;;7.37;6.67;;;18.50;96.30;;;;;;4975679;28;20652;-80
2022/06/29 06:58:58;;;;;;;8.80;7.33;;;18.60;96.30;;;;;;4995486;28;20252;-80
2022/06/29 07:01:24;;;;;;;8.73;7.87;;;18.60;96.30;;;;;;4976733;28;20201;-80
2022/06/29 07:03:50;;;;;;;8.07;7.30;;;18.50;96.30;;;;;;4994965;28;20177;-80
2022/06/29 07:06:16;;;;;;;8.60;7.90;;;18.60;96.30;;;;;;4996795;28;20177;-80
2022/06/29 07:08:41;;;;;;;9.83;8.20;;;18.70;96.30;;;;;;4977152;28;20797;-80
2022/06/29 07:11:08;;;;;;;9.97;8.10;;;18.50;96.30;;;;;;4987707;28;20668;-79
2022/06/29 07:13:34;;;;;;;10.57;9.20;;;18.50;96.30;;;;;;4962146;28;20170;-80
2022/06/29 07:16:03;;;;;;;9.70;8.70;;;18.50;96.30;;;;;;4995056;28;20408;-80
2022/06/29 07:18:29;;;;;;;10.40;9.40;;;18.60;96.30;;;;;;4987212;28;20433;-80
2022/06/29 07:20:55;;;;;;;10.20;9.20;;;18.60;96.30;;;;;;4993165;28;20437;-79
2022/06/29 07:23:20;;;;;;;15.27;9.73;;;18.50;96.30;;;;;;4994312;28;20417;-80
2022/06/29 07:25:46;;;;;;;10.30;9.30;;;18.50;96.30;;;;;;4994630;28;20436;-79
2022/06/29 07:28:12;;;;;;;10.63;9.53;;;18.40;96.30;;;;;;4994407;28;20193;-80
2022/06/29 07:30:37;;;;;;;10.13;9.17;;;18.40;96.30;;;;;;4976110;28;20209;-79
2022/06/29 07:33:03;;;;;;;13.77;9.83;;;18.40;96.30;;;;;;4976798;28;20178;-79
2022/06/29 07:35:29;;;;;;;11.47;9.87;;;18.50;96.30;;;;;;4976376;28;20542;-80
2022/06/29 07:37:54;;;;;;;11.23;10.13;;;18.50;96.30;;;;;;4993746;28;20558;-79
2022/06/29 07:40:20;;;;;;;10.97;9.87;;;18.50;96.30;;;;;;4994265;28;20235;-79
2022/06/29 07:42:46;;;;;;;10.27;9.27;;;18.60;96.30;;;;;;4977527;28;20697;-79
2022/06/29 07:45:12;;;;;;;11.30;10.20;;;18.70;96.30;;;;;;4976712;28;20412;-79
2022/06/29 07:47:39;;;;;;;11.77;10.40;;;18.80;96.30;;;;;;4994103;28;20177;-79
2022/06/29 07:50:05;;;;;;;10.87;9.87;;;19.10;96.30;;;;;;4994316;28;20846;-79
2022/06/29 07:52:33;;;;;;;11.20;9.80;;;18.90;96.30;;;;;;4994208;28;20452;-79
2022/06/29 07:54:59;;;;;;;13.83;10.60;;;18.90;96.30;;;;;;4976676;28;20436;-81
2022/06/29 07:57:25;;;;;;;11.30;10.07;;;19.00;96.30;;;;;;4994247;28;20495;-80
2022/06/29 07:59:50;;;;;;;12.20;11.10;;;19.10;96.30;;;;;;4976472;28;20857;-79
2022/06/29 08:02:16;;;;;;;11.17;10.17;;;19.10;96.30;;;;;;4994394;28;20589;-78
2022/06/29 08:04:41;;;;;;;11.23;10.10;;;19.00;96.30;;;;;;4993473;28;20252;-77
2022/06/29 08:07:07;;;;;;;12.90;11.53;;;18.90;96.30;;;;;;4993449;28;20184;-77
2022/06/29 08:09:32;;;;;;;12.53;11.23;;;19.00;96.30;;;;;;4993091;28;20232;-77
2022/06/29 08:11:58;;;;;;;11.83;10.67;;;19.10;96.30;;;;;;4975995;28;20201;-77
2022/06/29 08:14:23;;;;;;;12.30;11.23;;;19.10;96.30;;;;;;4993454;28;20166;-77
2022/06/29 08:16:49;;;;;;;13.67;11.20;;;19.10;96.30;;;;;;4993310;28;20173;-77
2022/06/29 08:19:14;;;;;;;12.17;11.00;;;19.10;96.30;;;;;;4993520;28;20186;-77
2022/06/29 08:21:40;;;;;;;12.67;11.43;;;19.10;96.30;;;;;;4994318;28;20205;-77
2022/06/29 08:24:05;;;;;;;12.17;10.97;;;19.10;96.30;;;;;;4980495;28;20256;-76
2022/06/29 08:26:31;;;;;;;11.80;10.70;;;19.10;96.30;;;;;;4980136;28;20181;-77
2022/06/29 08:28:56;;;;;;;13.37;11.13;;;19.10;96.30;;;;;;4979660;28;20200;-77
2022/06/29 08:31:22;;;;;;;13.63;11.77;;;19.20;96.30;;;;;;4980233;28;20645;-77
2022/06/29 08:33:47;;;;;;;13.30;12.10;;;19.20;96.30;;;;;;4978989;28;20185;-78
2022/06/29 08:36:13;;;;;;;13.63;12.20;;;19.30;96.30;;;;;;4996124;28;20633;-78
2022/06/29 08:38:39;;;;;;;14.73;13.33;;;19.40;96.30;;;;;;4977939;28;20206;-78
2022/06/29 08:41:05;;;;;;;14.17;12.53;;;19.50;96.30;;;;;;4980338;28;20205;-79
2022/06/29 08:43:32;;;;;;;14.17;12.67;;;19.70;96.30;;;;;;4976491;28;20414;-78
2022/06/29 08:45:58;;;;;;;15.50;14.00;;;20.00;96.30;;;;;;4989296;28;20960;-78
2022/06/29 08:48:24;;;;;;;16.57;14.40;;;20.30;96.30;;;;;;4995570;28;20412;-78
2022/06/29 08:50:51;;;;;;;14.80;13.13;;;20.50;96.30;;;;;;4995664;28;20209;-78
2022/06/29 08:53:17;;;;;;;16.77;14.00;;;20.70;96.30;;;;;;4995395;28;20531;-78
2022/06/29 08:55:51;;;;;;;15.27;13.80;;;20.90;96.30;;;;;;4995937;28;20526;-78
2022/06/29 08:58:23;;;;;;;14.10;12.80;;;21.40;96.30;;;;;;4995293;28;20228;-78
2022/06/29 09:00:49;;;;;;;14.30;13.00;;;21.80;96.30;;;;;;4995643;28;20953;-78
2022/06/29 09:03:17;;;;;;;13.50;12.10;;;22.00;96.30;;;;;;4995582;28;20498;-78
2022/06/29 09:05:51;;;;;;;18.60;13.60;;;21.90;96.30;;;;;;4978244;28;20516;-78
2022/06/29 09:08:18;;;;;;;15.60;13.30;;;21.70;96.30;;;;;;4995389;28;20408;-78
2022/06/29 09:10:44;;;;;;;12.23;11.03;;;22.00;96.30;;;;;;4995160;28;20926;-78
2022/06/29 09:13:10;;;;;;;12.70;11.50;;;22.30;96.30;;;;;;4995422;28;20413;-78
2022/06/29 09:15:39;;;;;;;13.13;11.80;;;22.20;96.30;;;;;;4995455;28;20173;-78
2022/06/29 09:18:25;;;;;;;13.43;12.10;;;22.40;96.30;;;;;;4995124;28;20232;-78
2022/06/29 09:20:59;;;;;;;13.83;12.20;;;22.20;96.30;;;;;;4986372;28;20460;-79
2022/06/29 09:23:26;;;;;;;15.37;13.90;;;22.00;96.30;;;;;;4977727;28;20431;-78
2022/06/29 09:25:51;;;;;;;14.77;13.37;;;21.60;96.30;;;;;;4995460;28;20755;-79
2022/06/29 09:28:23;;;;;;;17.00;14.47;;;21.40;96.30;;;;;;4994859;28;20979;-78
2022/06/29 09:30:49;;;;;;;14.57;13.17;;;21.50;96.30;;;;;;5003939;28;20217;-78
2022/06/29 09:33:15;;;;;;;14.63;13.33;;;21.60;96.30;;;;;;5011916;28;20404;-78
2022/06/29 09:35:41;;;;;;;15.17;13.73;;;22.10;96.30;;;;;;4995251;28;20420;-78
2022/06/29 09:38:28;;;;;;;14.40;12.93;;;22.60;96.30;;;;;;4995009;28;20181;-79
2022/06/29 09:41:02;;;;;;;14.03;12.70;;;22.70;96.30;;;;;;4977769;28;20197;-78
2022/06/29 09:43:29;;;;;;;15.20;12.90;;;23.10;96.30;;;;;;4995170;28;20577;-78
2022/06/29 09:45:55;;;;;;;15.37;13.87;;;23.20;96.30;;;;;;4995165;28;20420;-78
2022/06/29 09:48:26;;;;;;;15.87;14.37;;;22.40;96.30;;;;;;4994778;28;20551;-78
2022/06/29 09:50:53;;;;;;;17.17;15.50;;;22.70;96.30;;;;;;4994714;28;20472;-78
2022/06/29 09:53:31;;;;;;;16.30;14.80;;;22.80;96.30;;;;;;4977297;28;20443;-78
2022/06/29 09:56:02;;;;;;;16.00;14.20;;;22.60;96.30;;;;;;4977479;28;20421;-78
2022/06/29 09:58:46;;;;;;;16.87;15.17;;;23.00;96.30;;;;;;4994553;28;20413;-78
2022/06/29 10:03:59;;;;;;;14.63;13.13;;;23.60;96.30;;;;;;4994683;28;20459;-78
2022/06/29 10:06:25;;;;;;;14.77;13.27;;;23.70;96.30;;;;;;4976943;28;20904;-78
2022/06/29 10:08:55;;;;;;;14.43;13.03;;;23.50;96.30;;;;;;4993966;28;20615;-78
2022/06/29 10:14:38;;;;;;;12.93;11.83;;;23.00;96.30;;;;;;5005966;28;20411;-79
2022/06/29 10:17:31;;;;;;;13.60;12.30;;;22.60;96.30;;;;;;4989784;28;20467;-79
2022/06/29 10:20:16;;;;;;;13.40;12.10;;;22.40;96.30;;;;;;5006241;28;20895;-80
2022/06/29 10:36:07;;;;;;;13.40;12.20;;;22.50;96.30;;;;;;5026805;23;21052;-78
2022/06/29 10:38:58;;;;;;;13.37;12.07;;;22.20;96.30;;;;;;4994884;28;20780;-78
2022/06/29 10:44:12;;;;;;;16.20;14.57;;;22.40;96.30;;;;;;4964293;28;20786;-80
2022/06/29 10:46:57;;;;;;;14.70;13.30;;;22.50;96.30;;;;;;4992520;28;20563;-79
2022/06/29 10:49:23;;;;;;;14.90;13.50;;;22.40;96.30;;;;;;4979499;28;20202;-79
2022/06/29 10:51:49;;;;;;;13.30;12.10;;;22.50;96.30;;;;;;4981528;28;20449;-77
2022/06/29 10:54:26;;;;;;;14.43;12.97;;;22.50;96.30;;;;;;4968591;28;20420;-77
2022/06/29 10:56:52;;;;;;;16.30;13.43;;;22.50;96.30;;;;;;4992850;28;20455;-77
2022/06/29 10:59:50;;;;;;;12.83;11.60;;;22.60;96.30;;;;;;4991963;28;20448;-78
2022/06/29 11:02:17;;;;;;;10.47;9.53;;;22.80;96.30;;;;;;4948877;28;20489;-78
2022/06/29 11:04:43;;;;;;;9.07;8.27;;;22.70;96.30;;;;;;4993147;28;20417;-78
2022/06/29 11:12:52;;;;;;;10.87;9.87;;;22.20;96.30;;;;;;4992944;28;20495;-78
2022/06/29 11:15:39;;;;;;;9.43;8.53;;;22.20;96.30;;;;;;4993201;28;20876;-78
2022/06/29 11:18:11;;;;;;;9.93;9.00;;;22.30;96.30;;;;;;4975403;28;20423;-78
2022/06/29 11:20:38;;;;;;;10.07;9.17;;;22.50;96.30;;;;;;4992961;28;20430;-78
2022/06/29 11:23:07;;;;;;;9.97;9.00;;;22.70;96.30;;;;;;4993122;28;20908;-78
2022/06/29 11:25:37;;;;;;;8.30;7.70;;;23.10;96.30;;;;;;4992968;28;20413;-78
2022/06/29 11:28:03;;;;;;;8.33;6.97;;;23.40;96.30;;;;;;4992752;28;20420;-78
2022/06/29 11:30:29;;;;;;;7.60;6.90;;;23.30;96.30;;;;;;4992811;28;20464;-78
2022/06/29 11:32:54;;;;;;;7.63;6.93;;;23.10;96.30;;;;;;4991576;28;20166;-78
2022/06/29 11:35:22;;;;;;;8.03;7.27;;;22.90;96.30;;;;;;4969196;28;20231;-79
2022/06/29 11:37:53;;;;;;;7.83;6.90;;;22.70;96.30;;;;;;4966002;28;20185;-79
2022/06/29 11:40:28;;;;;;;8.47;7.20;;;22.50;96.30;;;;;;4991420;28;20432;-78
2022/06/29 11:43:05;;;;;;;10.70;9.80;;;22.40;96.30;;;;;;4992504;28;20800;-78
2022/06/29 11:45:56;;;;;;;13.60;12.30;;;21.90;96.30;;;;;;4992428;28;20428;-78
2022/06/29 11:48:22;;;;;;;14.90;13.43;;;21.50;96.30;;;;;;4992070;28;20435;-78
2022/06/29 11:50:51;;;;;;;15.93;14.33;;;21.50;96.30;;;;;;4992374;28;20463;-78
2022/06/29 11:53:36;;;;;;;17.27;15.50;;;21.40;96.30;;;;;;4992313;28;20427;-78
2022/06/29 11:56:13;;;;;;;19.10;17.30;;;21.40;96.30;;;;;;4992064;28;20472;-77
2022/06/29 11:58:44;;;;;;;19.50;17.70;;;21.40;96.30;;;;;;4991903;28;20422;-78
2022/06/29 12:01:11;;;;;;;20.60;17.90;;;21.10;96.30;;;;;;4992178;28;20560;-77
2022/06/29 12:03:38;;;;;;;20.17;18.30;;;20.90;96.30;;;;;;4992452;28;20437;-78
2022/06/29 12:06:04;;;;;;;20.97;18.83;;;20.90;96.30;;;;;;4974744;28;20421;-78
2022/06/29 12:08:30;;;;;;;20.23;18.30;;;21.10;96.30;;;;;;4974788;28;20413;-79
2022/06/29 12:10:56;;;;;;;21.83;17.67;;;21.30;96.30;;;;;;4992141;28;20755;-79
2022/06/29 12:13:23;;;;;;;18.87;17.07;;;21.30;96.30;;;;;;4992465;28;20471;-79
2022/06/29 12:15:48;;;;;;;19.20;16.83;;;21.20;96.30;;;;;;5007810;28;20498;-79
2022/06/29 12:18:16;;;;;;;22.10;19.90;;;21.10;96.30;;;;;;5010879;28;20802;-79
2022/06/29 12:20:44;;;;;;;21.00;18.90;;;20.90;96.30;;;;;;4992453;28;20768;-79
2022/06/29 12:23:10;;;;;;;21.90;20.00;;;20.80;96.30;;;;;;4991939;28;21007;-79
2022/06/29 12:25:36;;;;;;;19.33;17.57;;;20.60;96.30;;;;;;4992215;28;20539;-79
2022/06/29 12:28:02;;;;;;;20.97;18.87;;;20.80;96.30;;;;;;4992032;28;20174;-79
2022/06/29 12:30:28;;;;;;;20.97;19.00;;;21.00;96.30;;;;;;4991927;28;20472;-77
2022/06/29 12:32:54;;;;;;;20.57;18.67;;;21.30;96.30;;;;;;4991638;28;20413;-79
2022/06/29 12:35:19;;;;;;;20.07;18.27;;;21.40;96.30;;;;;;4986733;28;20328;-79
2022/06/29 12:37:45;;;;;;;21.10;19.20;;;21.90;96.30;;;;;;4974768;28;20214;-78
2022/06/29 12:40:11;;;;;;;17.87;15.97;;;22.10;96.30;;;;;;4971642;28;20870;-78
2022/06/29 12:42:37;;;;;;;19.33;17.43;;;22.30;96.30;;;;;;4982874;28;20201;-78
2022/06/29 12:45:04;;;;;;;20.17;18.17;;;22.30;96.30;;;;;;4983072;28;20448;-79
2022/06/29 12:47:30;;;;;;;22.17;20.10;;;22.70;96.30;;;;;;4989130;28;20441;-78
2022/06/29 12:49:55;;;;;;;18.80;17.17;;;22.90;96.30;;;;;;4991614;28;20842;-78
2022/06/29 12:52:23;;;;;;;19.13;17.20;;;22.90;96.30;;;;;;4993269;28;20202;-78
2022/06/29 12:54:48;;;;;;;20.63;18.53;;;22.90;96.30;;;;;;4991751;28;20182;-79
2022/06/29 12:57:16;;;;;;;21.17;18.90;;;22.90;96.30;;;;;;4991693;28;20516;-78
2022/06/29 12:59:42;;;;;;;19.63;17.83;;;22.70;96.30;;;;;;4991464;28;20181;-77
2022/06/29 13:02:08;;;;;;;19.77;17.87;;;22.60;96.30;;;;;;4991862;28;20546;-78
2022/06/29 13:04:33;;;;;;;18.00;16.50;;;22.70;96.30;;;;;;5002733;28;20665;-79
2022/06/29 13:06:58;;;;;;;19.97;17.87;;;22.70;96.30;;;;;;4991968;28;20436;-78
2022/06/29 13:09:24;;;;;;;19.50;17.90;;;22.40;96.30;;;;;;4992562;28;20712;-79
2022/06/29 13:11:50;;;;;;;17.67;16.07;;;22.10;96.30;;;;;;4991031;28;20248;-79
2022/06/29 13:14:15;;;;;;;19.80;17.90;;;21.70;96.30;;;;;;4987144;28;20178;-79
2022/06/29 13:16:42;;;;;;;20.57;18.63;;;21.60;96.30;;;;;;4989476;28;20891;-79
2022/06/29 13:19:07;;;;;;;21.27;19.27;;;21.80;96.30;;;;;;4992392;28;20232;-79
2022/06/29 13:21:33;;;;;;;16.57;14.83;;;21.70;96.30;;;;;;4990624;28;20885;-79
2022/06/29 13:23:59;;;;;;;17.90;16.30;;;21.70;96.30;;;;;;4983043;28;20177;-79
2022/06/29 13:26:25;;;;;;;18.30;16.60;;;22.00;96.30;;;;;;4996156;28;20177;-79
2022/06/29 13:28:50;;;;;;;14.90;13.60;;;22.50;96.30;;;;;;4995461;28;20200;-79
2022/06/29 13:31:16;;;;;;;15.30;13.80;;;22.70;96.30;;;;;;4978127;28;20665;-79
2022/06/29 13:33:41;;;;;;;15.10;13.80;;;22.60;96.30;;;;;;4992405;28;20265;-78
2022/06/29 13:36:07;;;;;;;14.60;12.83;;;22.60;96.30;;;;;;4993588;28;20191;-79
2022/06/29 13:38:33;;;;;;;14.87;13.57;;;22.40;96.30;;;;;;4994605;28;20560;-79
2022/06/29 13:40:58;;;;;;;15.80;14.20;;;22.50;96.30;;;;;;4992216;28;20202;-79
2022/06/29 13:43:24;;;;;;;16.10;14.70;;;22.40;96.30;;;;;;4994756;28;20281;-79
2022/06/29 13:45:50;;;;;;;16.23;14.83;;;22.50;96.30;;;;;;4977355;28;20248;-78
2022/06/29 13:48:15;;;;;;;19.10;17.40;;;22.60;96.30;;;;;;4992978;28;20185;-79
2022/06/29 13:50:44;;;;;;;19.33;17.63;;;22.50;96.30;;;;;;4994891;28;20291;-76
2022/06/29 13:53:09;;;;;;;17.93;16.30;;;22.70;96.30;;;;;;4994737;28;20189;-78
2022/06/29 13:55:35;;;;;;;17.83;15.83;;;23.20;96.30;;;;;;4986335;28;21119;-77
2022/06/29 13:58:01;;;;;;;18.33;16.47;;;23.60;96.30;;;;;;4985869;28;20178;-78
2022/06/29 14:00:27;;;;;;;17.77;16.10;;;23.80;96.30;;;;;;4976689;28;20185;-78
2022/06/29 14:02:52;;;;;;;19.37;17.67;;;23.70;96.30;;;;;;4977413;28;20552;-78
2022/06/29 14:05:18;;;;;;;16.73;15.13;;;23.40;96.30;;;;;;4994973;28;20416;-77
2022/06/29 14:07:43;;;;;;;17.30;15.70;;;23.30;96.30;;;;;;4958513;28;20243;-78
2022/06/29 14:10:09;;;;;;;17.90;16.20;;;23.70;96.30;;;;;;4975271;28;20214;-77
2022/06/29 14:12:35;;;;;;;17.83;16.33;;;24.60;96.30;;;;;;4979330;28;20257;-77
2022/06/29 14:15:00;;;;;;;17.73;16.03;;;25.40;96.30;;;;;;4994621;28;20556;-77
2022/06/29 14:17:27;;;;;;;17.97;16.37;;;25.70;96.30;;;;;;4994252;28;20181;-78
2022/06/29 14:19:52;;;;;;;18.10;16.33;;;25.80;96.30;;;;;;4992394;28;20181;-77
2022/06/29 14:22:18;;;;;;;18.10;16.40;;;25.70;96.30;;;;;;4992625;28;21064;-78
2022/06/29 14:24:43;;;;;;;19.83;17.87;;;25.40;96.30;;;;;;4992303;28;20184;-77
2022/06/29 14:27:09;;;;;;;22.40;20.00;;;25.00;96.30;;;;;;4977111;28;20260;-77
2022/06/29 14:29:36;;;;;;;21.10;19.30;;;24.90;96.30;;;;;;4966888;28;20288;-77
2022/06/29 14:32:02;;;;;;;21.83;19.53;;;24.40;96.30;;;;;;4990134;28;20194;-78
2022/06/29 14:34:27;;;;;;;23.00;20.90;;;24.10;96.30;;;;;;4989931;28;20447;-78
2022/06/29 14:36:53;;;;;;;22.07;20.07;;;23.70;96.30;;;;;;4977735;28;20421;-79
2022/06/29 14:39:19;;;;;;;21.40;19.50;;;24.00;96.30;;;;;;4970289;28;20612;-77
2022/06/29 14:41:44;;;;;;;22.67;20.27;;;24.40;96.30;;;;;;4965751;28;20229;-80
2022/06/29 14:44:10;;;;;;;26.30;19.70;;;24.70;96.30;;;;;;4969396;28;20187;-79
2022/06/29 14:46:36;;;;;;;22.53;20.13;;;24.70;96.30;;;;;;4984464;28;20182;-81
2022/06/29 14:49:01;;;;;;;21.93;19.63;;;24.50;96.30;;;;;;5047635;23;20435;-78
2022/06/29 14:51:27;;;;;;;21.13;19.00;;;24.50;96.30;;;;;;4993184;28;20197;-77
2022/06/29 14:53:52;;;;;;;21.40;19.30;;;24.80;96.30;;;;;;4995094;28;20197;-77
2022/06/29 14:56:19;;;;;;;21.40;19.30;;;24.70;96.30;;;;;;4978843;28;20582;-79
2022/06/29 14:58:45;;;;;;;23.03;20.70;;;24.80;96.30;;;;;;4983564;28;20212;-77
2022/06/29 15:01:11;;;;;;;23.53;21.03;;;24.70;96.30;;;;;;4985119;28;20864;-79
2022/06/29 15:03:36;;;;;;;23.20;20.80;;;24.70;96.30;;;;;;4994653;28;20252;-79
2022/06/29 15:06:02;;;;;;;22.53;20.47;;;24.70;96.30;;;;;;4994621;28;20169;-79
2022/06/29 15:08:28;;;;;;;20.87;18.83;;;24.60;96.30;;;;;;5001208;28;20180;-78
2022/06/29 15:31:35;;;;;;;13.87;12.67;;;25.00;96.30;;;;;;4965342;28;20528;-67
2022/06/29 15:52:26;;;;;;;13.50;11.77;;;25.40;96.30;;;;;;5201394;22;20510;-77
2022/06/29 15:57:37;;;;;;;18.50;14.87;;;25.40;96.30;;;;;;4989183;28;20205;-75
2022/06/29 16:00:04;;;;;;;9.27;8.37;;;25.50;96.30;;;;;;4991899;28;20443;-76
2022/06/29 16:02:29;;;;;;;8.37;7.63;;;25.30;96.30;;;;;;4989555;28;20524;-74
2022/06/29 16:04:55;;;;;;;9.30;7.97;;;25.30;96.30;;;;;;4976969;28;20493;-76
2022/06/29 16:07:20;;;;;;;12.90;8.27;;;25.20;96.30;;;;;;4971811;28;20201;-76
2022/06/29 16:09:46;;;;;;;10.63;7.97;;;24.90;96.30;;;;;;4971493;28;20584;-75
2022/06/29 16:12:13;;;;;;;8.97;8.17;;;24.90;96.30;;;;;;4981364;28;20181;-76
2022/06/29 16:14:41;;;;;;;9.93;7.80;;;24.90;96.30;;;;;;4990706;28;20201;-77
2022/06/29 16:17:07;;;;;;;9.03;8.23;;;24.70;96.30;;;;;;4974432;28;20893;-75
2022/06/29 16:19:33;;;;;;;10.10;8.30;;;24.20;96.30;;;;;;4955542;28;20449;-75
2022/06/29 16:21:59;;;;;;;10.20;8.70;;;24.20;96.30;;;;;;4972162;28;20421;-74
2022/06/29 16:24:25;;;;;;;12.03;8.00;;;24.30;96.30;;;;;;4971601;28;20460;-74
2022/06/29 16:26:50;;;;;;;8.70;7.73;;;24.20;96.30;;;;;;4972156;28;20186;-76
2022/06/29 16:29:16;;;;;;;10.43;8.23;;;24.20;96.30;;;;;;4971689;28;20494;-75
2022/06/29 16:31:42;;;;;;;9.23;8.33;;;24.20;96.30;;;;;;4971751;28;20655;-77
2022/06/29 16:34:07;;;;;;;11.03;9.07;;;24.00;96.30;;;;;;4971413;28;20178;-78
2022/06/29 16:36:35;;;;;;;12.80;10.47;;;24.00;96.30;;;;;;4973526;28;20650;-76
2022/06/29 16:39:02;;;;;;;11.70;8.47;;;23.90;96.30;;;;;;4970326;28;20266;-76
2022/06/29 16:41:27;;;;;;;11.07;9.70;;;23.90;96.30;;;;;;4966094;28;20424;-77
2022/06/29 16:43:53;;;;;;;12.83;11.60;;;23.70;96.30;;;;;;4968630;28;20794;-78
2022/06/29 16:46:18;;;;;;;11.50;10.50;;;23.60;96.30;;;;;;4983322;28;20181;-78
2022/06/29 16:48:43;;;;;;;14.57;12.00;;;23.50;96.30;;;;;;4984363;28;20185;-77
2022/06/29 16:51:09;;;;;;;14.67;11.90;;;23.50;96.30;;;;;;4967568;28;20245;-77
2022/06/29 16:53:34;;;;;;;12.63;11.53;;;23.30;96.30;;;;;;4957130;29;20261;-76
2022/06/29 16:56:01;;;;;;;13.47;12.27;;;23.30;96.30;;;;;;4956501;28;20187;-76
2022/06/29 16:58:26;;;;;;;14.43;12.93;;;23.00;96.30;;;;;;4956301;29;20186;-78
2022/06/29 17:00:51;;;;;;;15.10;13.80;;;23.20;96.30;;;;;;4961477;28;20464;-78
2022/06/29 17:03:17;;;;;;;13.10;11.87;;;23.20;96.30;;;;;;4975909;28;20563;-78
2022/06/29 17:05:42;;;;;;;13.53;12.33;;;23.10;96.30;;;;;;4971771;28;20205;-77
2022/06/29 17:08:08;;;;;;;13.83;12.50;;;23.10;96.30;;;;;;4957505;28;20190;-77
2022/06/29 17:10:34;;;;;;;13.97;12.43;;;23.00;96.30;;;;;;4974603;28;20206;-77
2022/06/29 17:13:00;;;;;;;13.30;12.20;;;22.90;96.30;;;;;;4975703;28;20182;-77
2022/06/29 17:15:26;;;;;;;13.57;12.43;;;22.90;96.30;;;;;;4974413;28;20688;-77
2022/06/29 17:17:51;;;;;;;12.90;11.70;;;22.80;96.30;;;;;;4986679;28;20455;-78
2022/06/29 17:20:20;;;;;;;12.63;11.50;;;22.70;96.30;;;;;;4978270;28;20473;-79
2022/06/29 17:22:49;;;;;;;11.73;10.63;;;22.60;96.30;;;;;;4975715;28;20183;-79
2022/06/29 17:25:15;;;;;;;11.87;10.67;;;22.60;96.30;;;;;;4975893;28;20792;-79
2022/06/29 17:27:41;;;;;;;11.80;10.70;;;22.60;96.30;;;;;;4971438;28;20440;-79
2022/06/29 17:30:08;;;;;;;12.63;11.37;;;22.70;96.30;;;;;;4976850;28;20473;-75
2022/06/29 17:32:34;;;;;;;11.37;9.80;;;22.70;96.30;;;;;;4979079;28;20424;-75
2022/06/29 17:35:00;;;;;;;12.30;10.73;;;22.70;96.30;;;;;;4978651;28;20422;-74
2022/06/29 17:37:25;;;;;;;13.63;11.50;;;22.60;96.30;;;;;;4961458;28;20271;-78
2022/06/29 17:39:51;;;;;;;12.63;11.33;;;22.30;96.30;;;;;;4978828;28;20469;-74
2022/06/29 17:42:17;;;;;;;12.73;11.43;;;22.10;96.30;;;;;;4977861;28;20559;-75
2022/06/29 17:44:43;;;;;;;11.90;10.80;;;22.00;96.30;;;;;;4958430;28;20218;-75
2022/06/29 17:47:08;;;;;;;15.17;13.60;;;22.00;96.30;;;;;;4975577;28;20186;-75
2022/06/29 17:49:34;;;;;;;13.97;12.57;;;21.80;96.30;;;;;;4975972;28;20222;-75
2022/06/29 17:52:01;;;;;;;13.07;11.63;;;21.70;96.30;;;;;;4977230;28;20190;-74
2022/06/29 17:54:27;;;;;;;15.20;12.30;;;21.60;96.30;;;;;;4974497;28;20545;-78
2022/06/29 17:56:53;;;;;;;19.03;12.57;;;21.50;96.30;;;;;;4975092;28;20418;-77
2022/06/29 17:59:20;;;;;;;14.00;12.70;;;21.50;96.30;;;;;;4974380;28;20194;-77
2022/06/29 18:01:47;;;;;;;14.83;13.43;;;21.30;96.30;;;;;;4988918;28;20213;-77
2022/06/29 18:04:12;;;;;;;14.47;12.90;;;21.20;96.30;;;;;;4992649;28;21097;-77